sensor_id;sensor_type;location;lat;lon;timestamp;P1;durP1;ratioP1;P2;durP2;ratioP2
45388;SDS011;31127;52.078;4.370;2023-07-13T00:03:34;20.55;;;4.60;;
45388;SDS011;31127;52.078;4.370;2023-07-13T00:08:31;16.80;;;4.03;;
45388;SDS011;31127;52.078;4.370;2023-07-13T00:13:28;18.63;;;4.10;;
45388;SDS011;31127;52.078;4.370;2023-07-13T00:18:24;20.65;;;4.00;;
45388;SDS011;31127;52.078;4.370;2023-07-13T00:23:20;21.35;;;3.63;;
45388;SDS011;31127;52.078;4.370;2023-07-13T00:28:15;14.30;;;3.67;;
45388;SDS011;31127;52.078;4.370;2023-07-13T00:33:10;11.30;;;3.47;;
45388;SDS011;31127;52.078;4.370;2023-07-13T00:38:06;11.27;;;2.28;;
45388;SDS011;31127;52.078;4.370;2023-07-13T00:43:02;10.13;;;2.08;;
45388;SDS011;31127;52.078;4.370;2023-07-13T00:47:58;4.80;;;1.38;;
45388;SDS011;31127;52.078;4.370;2023-07-13T00:52:53;12.23;;;2.47;;
45388;SDS011;31127;52.078;4.370;2023-07-13T00:57:50;13.13;;;2.10;;
45388;SDS011;31127;52.078;4.370;2023-07-13T01:02:45;6.55;;;1.60;;
45388;SDS011;31127;52.078;4.370;2023-07-13T01:07:43;8.27;;;2.20;;
45388;SDS011;31127;52.078;4.370;2023-07-13T01:12:39;5.28;;;1.77;;
45388;SDS011;31127;52.078;4.370;2023-07-13T01:17:35;7.88;;;1.60;;
45388;SDS011;31127;52.078;4.370;2023-07-13T01:22:34;4.20;;;1.45;;
45388;SDS011;31127;52.078;4.370;2023-07-13T01:27:30;6.47;;;1.45;;
45388;SDS011;31127;52.078;4.370;2023-07-13T01:32:25;6.82;;;1.63;;
45388;SDS011;31127;52.078;4.370;2023-07-13T01:37:24;6.25;;;1.25;;
45388;SDS011;31127;52.078;4.370;2023-07-13T01:42:40;5.82;;;1.13;;
45388;SDS011;31127;52.078;4.370;2023-07-13T01:47:36;5.57;;;1.30;;
45388;SDS011;31127;52.078;4.370;2023-07-13T01:52:31;5.07;;;1.42;;
45388;SDS011;31127;52.078;4.370;2023-07-13T01:57:47;4.93;;;1.23;;
45388;SDS011;31127;52.078;4.370;2023-07-13T02:02:43;2.78;;;1.17;;
45388;SDS011;31127;52.078;4.370;2023-07-13T02:07:39;3.47;;;1.27;;
45388;SDS011;31127;52.078;4.370;2023-07-13T02:12:35;6.38;;;1.40;;
45388;SDS011;31127;52.078;4.370;2023-07-13T02:17:31;11.88;;;2.10;;
45388;SDS011;31127;52.078;4.370;2023-07-13T02:22:27;6.57;;;1.48;;
45388;SDS011;31127;52.078;4.370;2023-07-13T02:27:22;6.57;;;1.65;;
45388;SDS011;31127;52.078;4.370;2023-07-13T02:32:19;9.70;;;1.80;;
45388;SDS011;31127;52.078;4.370;2023-07-13T02:37:15;7.95;;;2.42;;
45388;SDS011;31127;52.078;4.370;2023-07-13T02:42:13;9.98;;;2.15;;
45388;SDS011;31127;52.078;4.370;2023-07-13T02:47:08;7.47;;;1.85;;
45388;SDS011;31127;52.078;4.370;2023-07-13T02:52:04;11.18;;;3.03;;
45388;SDS011;31127;52.078;4.370;2023-07-13T02:57:00;10.10;;;2.42;;
45388;SDS011;31127;52.078;4.370;2023-07-13T03:01:55;7.00;;;3.10;;
45388;SDS011;31127;52.078;4.370;2023-07-13T03:06:51;9.40;;;2.17;;
45388;SDS011;31127;52.078;4.370;2023-07-13T03:11:46;14.63;;;3.20;;
45388;SDS011;31127;52.078;4.370;2023-07-13T03:16:57;13.75;;;3.08;;
45388;SDS011;31127;52.078;4.370;2023-07-13T03:21:56;11.68;;;3.05;;
45388;SDS011;31127;52.078;4.370;2023-07-13T03:26:52;8.82;;;2.72;;
45388;SDS011;31127;52.078;4.370;2023-07-13T03:31:48;8.10;;;3.15;;
45388;SDS011;31127;52.078;4.370;2023-07-13T03:37:03;12.82;;;3.45;;
45388;SDS011;31127;52.078;4.370;2023-07-13T03:41:59;15.38;;;3.25;;
45388;SDS011;31127;52.078;4.370;2023-07-13T03:46:55;12.40;;;3.60;;
45388;SDS011;31127;52.078;4.370;2023-07-13T03:51:52;14.85;;;3.33;;
45388;SDS011;31127;52.078;4.370;2023-07-13T03:56:48;11.15;;;3.15;;
45388;SDS011;31127;52.078;4.370;2023-07-13T04:01:45;11.98;;;3.50;;
45388;SDS011;31127;52.078;4.370;2023-07-13T04:06:41;13.20;;;2.97;;
45388;SDS011;31127;52.078;4.370;2023-07-13T04:11:37;14.00;;;3.70;;
45388;SDS011;31127;52.078;4.370;2023-07-13T04:16:32;10.20;;;2.83;;
45388;SDS011;31127;52.078;4.370;2023-07-13T04:21:28;10.68;;;2.95;;
45388;SDS011;31127;52.078;4.370;2023-07-13T04:26:24;12.85;;;2.97;;
45388;SDS011;31127;52.078;4.370;2023-07-13T04:31:20;16.33;;;3.28;;
45388;SDS011;31127;52.078;4.370;2023-07-13T04:36:16;8.30;;;3.22;;
45388;SDS011;31127;52.078;4.370;2023-07-13T04:41:13;12.60;;;2.38;;
45388;SDS011;31127;52.078;4.370;2023-07-13T04:46:11;10.35;;;3.15;;
45388;SDS011;31127;52.078;4.370;2023-07-13T04:51:07;11.00;;;3.65;;
45388;SDS011;31127;52.078;4.370;2023-07-13T04:56:03;12.65;;;3.28;;
45388;SDS011;31127;52.078;4.370;2023-07-13T05:01:02;11.32;;;3.10;;
45388;SDS011;31127;52.078;4.370;2023-07-13T05:06:01;9.50;;;3.15;;
45388;SDS011;31127;52.078;4.370;2023-07-13T05:10:56;9.13;;;2.78;;
45388;SDS011;31127;52.078;4.370;2023-07-13T05:15:57;11.95;;;3.47;;
45388;SDS011;31127;52.078;4.370;2023-07-13T05:21:00;14.93;;;4.43;;
45388;SDS011;31127;52.078;4.370;2023-07-13T05:25:56;11.10;;;2.35;;
45388;SDS011;31127;52.078;4.370;2023-07-13T05:30:52;13.38;;;3.25;;
45388;SDS011;31127;52.078;4.370;2023-07-13T05:35:49;8.77;;;2.70;;
45388;SDS011;31127;52.078;4.370;2023-07-13T05:40:44;9.30;;;3.27;;
45388;SDS011;31127;52.078;4.370;2023-07-13T05:45:40;9.50;;;3.17;;
45388;SDS011;31127;52.078;4.370;2023-07-13T05:50:36;10.50;;;2.65;;
45388;SDS011;31127;52.078;4.370;2023-07-13T05:55:31;7.97;;;2.65;;
45388;SDS011;31127;52.078;4.370;2023-07-13T06:00:27;6.97;;;2.40;;
45388;SDS011;31127;52.078;4.370;2023-07-13T06:05:22;6.95;;;2.60;;
45388;SDS011;31127;52.078;4.370;2023-07-13T06:10:18;7.82;;;2.83;;
45388;SDS011;31127;52.078;4.370;2023-07-13T06:15:14;17.30;;;3.55;;
45388;SDS011;31127;52.078;4.370;2023-07-13T06:20:09;11.82;;;2.55;;
45388;SDS011;31127;52.078;4.370;2023-07-13T06:25:05;10.70;;;2.50;;
45388;SDS011;31127;52.078;4.370;2023-07-13T06:30:00;9.90;;;2.80;;
45388;SDS011;31127;52.078;4.370;2023-07-13T06:34:56;10.30;;;2.80;;
45388;SDS011;31127;52.078;4.370;2023-07-13T06:39:51;10.95;;;2.92;;
45388;SDS011;31127;52.078;4.370;2023-07-13T06:44:47;10.48;;;3.17;;
45388;SDS011;31127;52.078;4.370;2023-07-13T06:49:42;6.73;;;2.70;;
45388;SDS011;31127;52.078;4.370;2023-07-13T06:54:38;8.18;;;2.83;;
45388;SDS011;31127;52.078;4.370;2023-07-13T06:59:33;10.68;;;3.42;;
45388;SDS011;31127;52.078;4.370;2023-07-13T07:04:29;9.65;;;2.80;;
45388;SDS011;31127;52.078;4.370;2023-07-13T07:09:25;10.77;;;2.83;;
45388;SDS011;31127;52.078;4.370;2023-07-13T07:14:20;11.32;;;2.72;;
45388;SDS011;31127;52.078;4.370;2023-07-13T07:19:16;8.73;;;2.92;;
45388;SDS011;31127;52.078;4.370;2023-07-13T07:24:31;7.63;;;2.80;;
45388;SDS011;31127;52.078;4.370;2023-07-13T07:29:47;16.00;;;3.22;;
45388;SDS011;31127;52.078;4.370;2023-07-13T07:35:02;8.13;;;3.28;;
45388;SDS011;31127;52.078;4.370;2023-07-13T07:39:58;11.32;;;3.08;;
45388;SDS011;31127;52.078;4.370;2023-07-13T07:44:54;10.63;;;3.20;;
45388;SDS011;31127;52.078;4.370;2023-07-13T07:50:09;11.45;;;2.75;;
45388;SDS011;31127;52.078;4.370;2023-07-13T07:55:06;8.07;;;2.72;;
45388;SDS011;31127;52.078;4.370;2023-07-13T08:00:22;10.48;;;2.50;;
45388;SDS011;31127;52.078;4.370;2023-07-13T08:05:17;9.50;;;2.95;;
45388;SDS011;31127;52.078;4.370;2023-07-13T08:10:13;7.40;;;3.10;;
45388;SDS011;31127;52.078;4.370;2023-07-13T08:15:10;8.85;;;2.85;;
45388;SDS011;31127;52.078;4.370;2023-07-13T08:20:06;10.07;;;2.92;;
45388;SDS011;31127;52.078;4.370;2023-07-13T08:25:02;10.50;;;3.35;;
45388;SDS011;31127;52.078;4.370;2023-07-13T08:29:57;10.35;;;3.22;;
45388;SDS011;31127;52.078;4.370;2023-07-13T08:34:56;9.30;;;3.38;;
45388;SDS011;31127;52.078;4.370;2023-07-13T08:39:52;9.65;;;3.25;;
45388;SDS011;31127;52.078;4.370;2023-07-13T08:45:02;11.05;;;3.17;;
45388;SDS011;31127;52.078;4.370;2023-07-13T08:50:03;10.00;;;3.40;;
45388;SDS011;31127;52.078;4.370;2023-07-13T08:54:58;5.53;;;2.47;;
45388;SDS011;31127;52.078;4.370;2023-07-13T08:59:58;11.93;;;3.00;;
45388;SDS011;31127;52.078;4.370;2023-07-13T09:09:59;13.60;;;3.95;;
45388;SDS011;31127;52.078;4.370;2023-07-13T09:14:58;8.88;;;3.40;;
45388;SDS011;31127;52.078;4.370;2023-07-13T09:20:18;7.30;;;2.50;;
45388;SDS011;31127;52.078;4.370;2023-07-13T09:25:25;9.27;;;3.70;;
45388;SDS011;31127;52.078;4.370;2023-07-13T09:30:30;9.05;;;3.00;;
45388;SDS011;31127;52.078;4.370;2023-07-13T09:35:34;9.25;;;2.97;;
45388;SDS011;31127;52.078;4.370;2023-07-13T09:40:52;6.78;;;2.85;;
45388;SDS011;31127;52.078;4.370;2023-07-13T09:45:50;11.35;;;3.58;;
45388;SDS011;31127;52.078;4.370;2023-07-13T09:50:46;4.03;;;2.20;;
45388;SDS011;31127;52.078;4.370;2023-07-13T09:55:42;7.50;;;2.95;;
45388;SDS011;31127;52.078;4.370;2023-07-13T10:00:38;9.90;;;3.28;;
45388;SDS011;31127;52.078;4.370;2023-07-13T10:05:39;7.20;;;3.17;;
45388;SDS011;31127;52.078;4.370;2023-07-13T10:10:35;9.02;;;2.90;;
45388;SDS011;31127;52.078;4.370;2023-07-13T10:15:31;10.02;;;3.00;;
45388;SDS011;31127;52.078;4.370;2023-07-13T10:20:27;8.45;;;3.00;;
45388;SDS011;31127;52.078;4.370;2023-07-13T10:25:26;6.82;;;3.05;;
45388;SDS011;31127;52.078;4.370;2023-07-13T10:30:27;9.70;;;2.67;;
45388;SDS011;31127;52.078;4.370;2023-07-13T10:40:42;9.65;;;2.45;;
45388;SDS011;31127;52.078;4.370;2023-07-13T10:46:01;8.10;;;2.80;;
45388;SDS011;31127;52.078;4.370;2023-07-13T10:51:00;8.75;;;2.58;;
45388;SDS011;31127;52.078;4.370;2023-07-13T11:21:22;6.78;;;2.80;;
45388;SDS011;31127;52.078;4.370;2023-07-13T11:31:35;6.57;;;2.70;;
45388;SDS011;31127;52.078;4.370;2023-07-13T11:36:31;4.60;;;2.33;;
45388;SDS011;31127;52.078;4.370;2023-07-13T11:41:35;6.60;;;3.35;;
45388;SDS011;31127;52.078;4.370;2023-07-13T11:46:31;5.22;;;2.40;;
45388;SDS011;31127;52.078;4.370;2023-07-13T11:51:30;4.50;;;2.47;;
45388;SDS011;31127;52.078;4.370;2023-07-13T11:56:27;5.75;;;2.78;;
45388;SDS011;31127;52.078;4.370;2023-07-13T12:01:26;5.87;;;2.33;;
45388;SDS011;31127;52.078;4.370;2023-07-13T12:06:28;8.15;;;2.30;;
45388;SDS011;31127;52.078;4.370;2023-07-13T12:11:24;4.35;;;2.33;;
45388;SDS011;31127;52.078;4.370;2023-07-13T12:16:40;12.05;;;2.63;;
45388;SDS011;31127;52.078;4.370;2023-07-13T12:21:39;5.90;;;2.95;;
45388;SDS011;31127;52.078;4.370;2023-07-13T12:26:34;5.38;;;2.45;;
45388;SDS011;31127;52.078;4.370;2023-07-13T12:36:32;7.25;;;2.72;;
45388;SDS011;31127;52.078;4.370;2023-07-13T12:41:32;4.18;;;2.42;;
45388;SDS011;31127;52.078;4.370;2023-07-13T12:46:31;5.47;;;2.20;;
45388;SDS011;31127;52.078;4.370;2023-07-13T12:51:27;5.85;;;2.47;;
45388;SDS011;31127;52.078;4.370;2023-07-13T12:56:24;6.00;;;2.55;;
45388;SDS011;31127;52.078;4.370;2023-07-13T13:01:21;6.90;;;2.85;;
45388;SDS011;31127;52.078;4.370;2023-07-13T13:11:17;7.28;;;3.03;;
45388;SDS011;31127;52.078;4.370;2023-07-13T13:16:23;5.03;;;2.42;;
45388;SDS011;31127;52.078;4.370;2023-07-13T13:21:20;7.78;;;2.45;;
45388;SDS011;31127;52.078;4.370;2023-07-13T13:26:36;5.80;;;2.70;;
45388;SDS011;31127;52.078;4.370;2023-07-13T13:31:32;6.03;;;2.65;;
45388;SDS011;31127;52.078;4.370;2023-07-13T13:36:27;6.90;;;2.55;;
45388;SDS011;31127;52.078;4.370;2023-07-13T13:41:22;4.03;;;2.00;;
45388;SDS011;31127;52.078;4.370;2023-07-13T13:46:19;6.17;;;2.13;;
45388;SDS011;31127;52.078;4.370;2023-07-13T13:51:17;6.50;;;2.22;;
45388;SDS011;31127;52.078;4.370;2023-07-13T13:56:13;6.70;;;2.78;;
45388;SDS011;31127;52.078;4.370;2023-07-13T14:01:15;6.22;;;2.80;;
45388;SDS011;31127;52.078;4.370;2023-07-13T14:06:12;3.75;;;2.00;;
45388;SDS011;31127;52.078;4.370;2023-07-13T14:11:11;5.00;;;2.55;;
45388;SDS011;31127;52.078;4.370;2023-07-13T14:16:15;4.28;;;2.42;;
45388;SDS011;31127;52.078;4.370;2023-07-13T14:21:18;3.60;;;2.03;;
45388;SDS011;31127;52.078;4.370;2023-07-13T14:26:16;5.30;;;2.70;;
45388;SDS011;31127;52.078;4.370;2023-07-13T14:31:13;4.15;;;2.67;;
45388;SDS011;31127;52.078;4.370;2023-07-13T14:36:30;6.28;;;2.20;;
45388;SDS011;31127;52.078;4.370;2023-07-13T14:41:24;6.70;;;2.33;;
45388;SDS011;31127;52.078;4.370;2023-07-13T14:46:27;4.63;;;2.15;;
45388;SDS011;31127;52.078;4.370;2023-07-13T14:51:26;3.72;;;1.65;;
45388;SDS011;31127;52.078;4.370;2023-07-13T14:56:22;5.60;;;2.58;;
45388;SDS011;31127;52.078;4.370;2023-07-13T15:01:17;6.13;;;1.75;;
45388;SDS011;31127;52.078;4.370;2023-07-13T15:06:13;4.07;;;2.00;;
45388;SDS011;31127;52.078;4.370;2023-07-13T15:11:09;4.22;;;2.08;;
45388;SDS011;31127;52.078;4.370;2023-07-13T15:16:10;3.30;;;1.73;;
45388;SDS011;31127;52.078;4.370;2023-07-13T15:21:13;5.07;;;1.88;;
45388;SDS011;31127;52.078;4.370;2023-07-13T15:26:13;6.28;;;2.10;;
45388;SDS011;31127;52.078;4.370;2023-07-13T15:31:17;4.50;;;1.58;;
45388;SDS011;31127;52.078;4.370;2023-07-13T15:36:13;3.75;;;1.92;;
45388;SDS011;31127;52.078;4.370;2023-07-13T15:41:11;3.63;;;1.70;;
45388;SDS011;31127;52.078;4.370;2023-07-13T15:46:11;6.07;;;2.20;;
45388;SDS011;31127;52.078;4.370;2023-07-13T15:51:09;6.50;;;2.42;;
45388;SDS011;31127;52.078;4.370;2023-07-13T15:56:11;3.75;;;2.00;;
45388;SDS011;31127;52.078;4.370;2023-07-13T16:01:11;8.20;;;2.70;;
45388;SDS011;31127;52.078;4.370;2023-07-13T16:06:14;5.18;;;2.03;;
45388;SDS011;31127;52.078;4.370;2023-07-13T16:11:53;8.05;;;2.85;;
45388;SDS011;31127;52.078;4.370;2023-07-13T16:16:30;8.13;;;2.42;;
45388;SDS011;31127;52.078;4.370;2023-07-13T16:21:27;4.88;;;1.80;;
45388;SDS011;31127;52.078;4.370;2023-07-13T16:26:28;6.32;;;2.15;;
45388;SDS011;31127;52.078;4.370;2023-07-13T16:31:31;5.20;;;2.30;;
45388;SDS011;31127;52.078;4.370;2023-07-13T16:36:30;4.20;;;2.03;;
45388;SDS011;31127;52.078;4.370;2023-07-13T16:41:26;7.57;;;2.35;;
45388;SDS011;31127;52.078;4.370;2023-07-13T16:46:22;7.55;;;2.40;;
45388;SDS011;31127;52.078;4.370;2023-07-13T16:51:20;7.75;;;2.20;;
45388;SDS011;31127;52.078;4.370;2023-07-13T16:56:17;6.40;;;2.90;;
45388;SDS011;31127;52.078;4.370;2023-07-13T17:01:13;6.43;;;2.58;;
45388;SDS011;31127;52.078;4.370;2023-07-13T17:06:14;3.53;;;1.65;;
45388;SDS011;31127;52.078;4.370;2023-07-13T17:11:34;5.25;;;2.17;;
45388;SDS011;31127;52.078;4.370;2023-07-13T17:16:30;7.73;;;2.47;;
45388;SDS011;31127;52.078;4.370;2023-07-13T17:21:26;4.05;;;2.10;;
45388;SDS011;31127;52.078;4.370;2023-07-13T17:26:22;5.28;;;2.15;;
45388;SDS011;31127;52.078;4.370;2023-07-13T17:31:18;8.73;;;2.33;;
45388;SDS011;31127;52.078;4.370;2023-07-13T17:36:15;7.38;;;2.47;;
45388;SDS011;31127;52.078;4.370;2023-07-13T17:41:12;7.57;;;2.38;;
45388;SDS011;31127;52.078;4.370;2023-07-13T17:46:13;7.78;;;2.30;;
45388;SDS011;31127;52.078;4.370;2023-07-13T17:51:12;6.97;;;2.28;;
45388;SDS011;31127;52.078;4.370;2023-07-13T17:56:08;4.50;;;2.25;;
45388;SDS011;31127;52.078;4.370;2023-07-13T18:01:04;7.75;;;2.20;;
45388;SDS011;31127;52.078;4.370;2023-07-13T18:06:03;7.40;;;2.15;;
45388;SDS011;31127;52.078;4.370;2023-07-13T18:10:59;6.53;;;3.00;;
45388;SDS011;31127;52.078;4.370;2023-07-13T18:15:55;9.88;;;2.30;;
45388;SDS011;31127;52.078;4.370;2023-07-13T18:20:53;8.95;;;2.30;;
45388;SDS011;31127;52.078;4.370;2023-07-13T18:25:50;7.32;;;1.80;;
45388;SDS011;31127;52.078;4.370;2023-07-13T18:30:56;9.18;;;2.20;;
45388;SDS011;31127;52.078;4.370;2023-07-13T18:35:53;5.28;;;1.70;;
45388;SDS011;31127;52.078;4.370;2023-07-13T18:40:49;4.68;;;1.90;;
45388;SDS011;31127;52.078;4.370;2023-07-13T18:45:44;7.88;;;1.83;;
45388;SDS011;31127;52.078;4.370;2023-07-13T18:50:40;3.40;;;1.52;;
45388;SDS011;31127;52.078;4.370;2023-07-13T18:55:37;11.73;;;5.97;;
45388;SDS011;31127;52.078;4.370;2023-07-13T19:00:34;5.68;;;1.88;;
45388;SDS011;31127;52.078;4.370;2023-07-13T19:05:34;8.98;;;1.75;;
45388;SDS011;31127;52.078;4.370;2023-07-13T19:10:30;4.53;;;1.60;;
45388;SDS011;31127;52.078;4.370;2023-07-13T19:15:26;6.50;;;1.80;;
45388;SDS011;31127;52.078;4.370;2023-07-13T19:20:26;7.35;;;1.73;;
45388;SDS011;31127;52.078;4.370;2023-07-13T19:25:21;4.30;;;1.63;;
45388;SDS011;31127;52.078;4.370;2023-07-13T19:30:17;4.07;;;1.60;;
45388;SDS011;31127;52.078;4.370;2023-07-13T19:35:14;5.88;;;1.77;;
45388;SDS011;31127;52.078;4.370;2023-07-13T19:40:21;6.35;;;1.98;;
45388;SDS011;31127;52.078;4.370;2023-07-13T19:45:19;7.93;;;2.03;;
45388;SDS011;31127;52.078;4.370;2023-07-13T19:50:18;4.95;;;2.00;;
45388;SDS011;31127;52.078;4.370;2023-07-13T19:55:18;3.88;;;1.40;;
45388;SDS011;31127;52.078;4.370;2023-07-13T20:00:15;5.63;;;2.10;;
45388;SDS011;31127;52.078;4.370;2023-07-13T20:05:13;6.53;;;2.28;;
45388;SDS011;31127;52.078;4.370;2023-07-13T20:10:17;7.38;;;2.17;;
45388;SDS011;31127;52.078;4.370;2023-07-13T20:15:16;8.13;;;3.00;;
45388;SDS011;31127;52.078;4.370;2023-07-13T20:20:16;11.10;;;2.53;;
45388;SDS011;31127;52.078;4.370;2023-07-13T20:25:13;11.43;;;2.80;;
45388;SDS011;31127;52.078;4.370;2023-07-13T20:30:10;9.45;;;2.95;;
45388;SDS011;31127;52.078;4.370;2023-07-13T20:35:09;11.68;;;2.67;;
45388;SDS011;31127;52.078;4.370;2023-07-13T20:45:14;11.13;;;2.53;;
45388;SDS011;31127;52.078;4.370;2023-07-13T20:50:22;10.90;;;2.38;;
45388;SDS011;31127;52.078;4.370;2023-07-13T20:55:20;5.88;;;2.00;;
45388;SDS011;31127;52.078;4.370;2023-07-13T21:00:17;10.52;;;2.38;;
45388;SDS011;31127;52.078;4.370;2023-07-13T21:05:16;8.68;;;2.38;;
45388;SDS011;31127;52.078;4.370;2023-07-13T21:10:32;8.18;;;2.40;;
45388;SDS011;31127;52.078;4.370;2023-07-13T21:15:30;7.78;;;2.28;;
45388;SDS011;31127;52.078;4.370;2023-07-13T21:20:30;13.25;;;3.20;;
45388;SDS011;31127;52.078;4.370;2023-07-13T21:25:28;10.60;;;3.17;;
45388;SDS011;31127;52.078;4.370;2023-07-13T21:30:32;6.22;;;2.63;;
45388;SDS011;31127;52.078;4.370;2023-07-13T21:40:25;11.02;;;2.88;;
45388;SDS011;31127;52.078;4.370;2023-07-13T21:45:26;6.57;;;3.00;;
45388;SDS011;31127;52.078;4.370;2023-07-13T21:50:42;7.50;;;3.03;;
45388;SDS011;31127;52.078;4.370;2023-07-13T21:55:39;6.95;;;3.35;;
45388;SDS011;31127;52.078;4.370;2023-07-13T22:00:54;11.07;;;3.63;;
45388;SDS011;31127;52.078;4.370;2023-07-13T22:06:23;7.82;;;2.80;;
45388;SDS011;31127;52.078;4.370;2023-07-13T22:11:21;6.22;;;2.70;;
45388;SDS011;31127;52.078;4.370;2023-07-13T22:16:26;6.93;;;2.40;;
45388;SDS011;31127;52.078;4.370;2023-07-13T22:21:22;8.45;;;3.45;;
45388;SDS011;31127;52.078;4.370;2023-07-13T22:26:19;7.28;;;2.80;;
45388;SDS011;31127;52.078;4.370;2023-07-13T22:31:16;7.53;;;3.00;;
45388;SDS011;31127;52.078;4.370;2023-07-13T22:36:12;7.93;;;3.17;;
45388;SDS011;31127;52.078;4.370;2023-07-13T22:41:09;8.00;;;4.22;;
45388;SDS011;31127;52.078;4.370;2023-07-13T22:46:24;11.35;;;3.00;;
45388;SDS011;31127;52.078;4.370;2023-07-13T22:51:20;11.63;;;2.95;;
45388;SDS011;31127;52.078;4.370;2023-07-13T22:56:19;7.40;;;2.80;;
45388;SDS011;31127;52.078;4.370;2023-07-13T23:01:18;9.20;;;3.03;;
45388;SDS011;31127;52.078;4.370;2023-07-13T23:06:18;10.00;;;3.40;;
45388;SDS011;31127;52.078;4.370;2023-07-13T23:11:16;8.40;;;3.28;;
45388;SDS011;31127;52.078;4.370;2023-07-13T23:16:13;10.73;;;3.83;;
45388;SDS011;31127;52.078;4.370;2023-07-13T23:21:10;20.52;;;4.15;;
45388;SDS011;31127;52.078;4.370;2023-07-13T23:26:23;15.15;;;3.90;;
45388;SDS011;31127;52.078;4.370;2023-07-13T23:36:19;7.57;;;2.42;;
45388;SDS011;31127;52.078;4.370;2023-07-13T23:41:16;11.40;;;3.10;;
45388;SDS011;31127;52.078;4.370;2023-07-13T23:46:23;10.30;;;3.33;;
45388;SDS011;31127;52.078;4.370;2023-07-13T23:51:23;8.45;;;3.05;;
45388;SDS011;31127;52.078;4.370;2023-07-13T23:56:20;6.70;;;2.60;;
